Time;durP1;ratioP1;P1;durP2;ratioP2;P2;SDS_P1;SDS_P2;PMS_P1;PMS_P2;Temp;Humidity;BMP_temperature;BMP_pressure;BME280_temperature;BME280_humidity;BME280_pressure;Samples;Min_cycle;Max_cycle;Signal;HPM_P1;HPM_P2
2022/03/12 00:00:26;;;;;;;11.30;5.60;;;;;;;-0.70;35.12;100165.59;4974113;28;20479;-73
2022/03/12 00:03:12;;;;;;;11.18;5.75;;;;;;;-0.48;34.81;100163.88;4986473;28;20039;-74
2022/03/12 00:05:59;;;;;;;14.60;5.93;;;;;;;-0.65;35.66;100157.00;4974021;28;20050;-73
2022/03/12 00:08:47;;;;;;;13.90;6.55;;;;;;;-0.70;36.00;100158.72;4972200;28;20043;-73
2022/03/12 00:11:47;;;;;;;15.48;6.68;;;;;;;-0.85;36.13;100159.59;4986697;28;20046;-73
2022/03/12 00:14:34;;;;;;;17.23;6.90;;;;;;;-0.95;36.39;100163.88;4984101;28;20043;-74
2022/03/12 00:17:22;;;;;;;12.98;6.53;;;;;;;-0.93;36.38;100161.28;4973268;28;20434;-73
2022/03/12 00:20:12;;;;;;;13.25;6.75;;;;;;;-0.95;36.38;100161.28;4973016;28;20047;-75
2022/03/12 00:22:58;;;;;;;12.80;6.63;;;;;;;-0.73;36.20;100168.16;4986184;28;20047;-73
2022/03/12 00:25:44;;;;;;;16.23;8.27;;;;;;;-1.19;36.82;100162.09;4973791;28;20039;-74
2022/03/12 00:28:29;;;;;;;17.05;8.43;;;;;;;-1.50;37.97;100170.56;4986099;28;20039;-74
2022/03/12 00:31:14;;;;;;;17.17;8.65;;;;;;;-1.88;38.70;100177.25;4973836;28;20047;-75
2022/03/12 00:34:00;;;;;;;16.58;8.02;;;;;;;-2.02;39.36;100183.19;4974001;28;20050;-73
2022/03/12 00:36:45;;;;;;;12.88;7.38;;;;;;;-1.75;38.82;100175.63;4973145;28;20051;-73
2022/03/12 00:39:30;;;;;;;15.30;7.63;;;;;;;-2.15;38.87;100183.94;4986259;28;20051;-72
2022/03/12 00:42:15;;;;;;;14.82;7.45;;;;;;;-2.16;38.82;100187.38;4973547;28;20047;-72
2022/03/12 00:45:01;;;;;;;13.25;7.60;;;;;;;-1.78;37.92;100180.75;4969441;28;20078;-73
2022/03/12 00:47:49;;;;;;;17.20;8.68;;;;;;;-2.24;38.57;100187.31;4985500;28;20039;-72
2022/03/12 00:50:35;;;;;;;16.20;8.35;;;;;;;-2.50;39.44;100181.13;4973959;28;20047;-73
2022/03/12 00:53:20;;;;;;;14.00;7.25;;;;;;;-2.20;38.93;100193.34;4974456;28;20047;-73
2022/03/12 00:56:06;;;;;;;15.32;7.40;;;;;;;-2.08;38.79;100184.84;4986127;28;20051;-72
2022/03/12 00:58:51;;;;;;;14.70;7.75;;;;;;;-2.02;38.61;100187.44;4985891;28;20055;-71
2022/03/12 01:01:36;;;;;;;17.83;7.45;;;;;;;-2.20;39.03;100183.91;4985867;28;20043;-73
2022/03/12 01:04:23;;;;;;;17.63;7.72;;;;;;;-1.94;38.83;100180.66;4973326;28;20066;-74
2022/03/12 01:07:10;;;;;;;15.35;8.05;;;;;;;-2.11;38.79;100189.13;4985870;28;20047;-74
2022/03/12 01:09:56;;;;;;;19.58;7.95;;;;;;;-2.10;39.02;100192.53;4954225;29;20391;-74
2022/03/12 01:12:43;;;;;;;27.77;8.52;;;;;;;-2.31;39.44;100191.56;4966385;28;20395;-72
2022/03/12 01:15:28;;;;;;;18.35;8.23;;;;;;;-2.60;40.27;100192.19;4965809;28;20414;-73
2022/03/12 01:18:20;;;;;;;17.92;8.73;;;;;;;-2.80;41.36;100190.31;4952331;29;20059;-74
2022/03/12 01:21:17;;;;;;;23.27;9.02;;;;;;;-2.79;41.42;100192.00;4970299;28;20131;-72
2022/03/12 01:24:02;;;;;;;14.35;7.47;;;;;;;-2.40;40.83;100186.34;4970020;28;20039;-74
2022/03/12 01:26:48;;;;;;;16.27;8.95;;;;;;;-2.27;40.55;100184.75;4956528;29;20047;-74
2022/03/12 01:29:33;;;;;;;21.50;8.73;;;;;;;-2.34;40.43;100188.97;4957570;29;20055;-73
2022/03/12 01:32:18;;;;;;;20.30;8.27;;;;;;;-2.14;40.44;100196.78;4957840;29;20047;-74
2022/03/12 01:35:05;;;;;;;15.90;7.82;;;;;;;-1.90;39.95;100190.09;4957608;29;20487;-74
2022/03/12 01:37:51;;;;;;;17.67;7.45;;;;;;;-2.00;40.78;100198.59;4957464;29;20039;-74
2022/03/12 01:40:36;;;;;;;17.10;8.68;;;;;;;-2.14;41.42;100201.09;4956020;29;20044;-74
2022/03/12 01:43:22;;;;;;;19.33;8.27;;;;;;;-1.90;41.21;100204.66;4957699;29;20431;-73
2022/03/12 01:46:09;;;;;;;18.65;8.20;;;;;;;-1.98;41.74;100209.75;4942906;29;20043;-74
2022/03/12 01:48:59;;;;;;;20.13;9.82;;;;;;;-2.31;42.71;100209.53;4957073;28;20050;-73
2022/03/12 01:51:47;;;;;;;17.25;8.25;;;;;;;-2.43;42.68;100212.84;4956775;29;20051;-74
2022/03/12 01:54:32;;;;;;;16.60;8.43;;;;;;;-2.04;41.77;100217.44;4957336;29;20043;-73
2022/03/12 01:57:17;;;;;;;14.95;7.95;;;;;;;-1.94;41.75;100220.91;4942296;29;20403;-74
2022/03/12 02:00:04;;;;;;;21.23;8.55;;;;;;;-2.30;42.68;100215.53;4942537;29;20039;-74
2022/03/12 02:02:54;;;;;;;14.75;8.20;;;;;;;-2.35;42.68;100215.50;4956972;29;20043;-74
2022/03/12 02:05:40;;;;;;;18.60;8.93;;;;;;;-2.39;43.22;100216.31;4956074;28;20035;-74
2022/03/12 02:08:26;;;;;;;20.30;9.38;;;;;;;-2.41;42.61;100211.16;4966190;28;20035;-74
2022/03/12 02:11:12;;;;;;;18.88;8.48;;;;;;;-2.32;42.71;100214.66;4974744;28;20051;-74
2022/03/12 02:14:00;;;;;;;17.30;8.18;;;;;;;-2.03;42.14;100219.13;4968631;28;20051;-73
2022/03/12 02:16:49;;;;;;;17.35;8.63;;;;;;;-2.72;43.76;100216.91;4961338;28;20035;-74
2022/03/12 02:19:35;;;;;;;17.85;7.53;;;;;;;-2.56;43.47;100211.88;4955943;28;20047;-73
2022/03/12 02:22:20;;;;;;;20.90;9.05;;;;;;;-2.72;43.72;100219.47;4957246;28;20039;-73
2022/03/12 02:25:06;;;;;;;19.02;8.68;;;;;;;-2.64;43.43;100219.53;4974033;28;20044;-74
2022/03/12 02:27:52;;;;;;;17.67;7.78;;;;;;;-2.56;42.42;100218.75;4969535;28;20039;-74
2022/03/12 02:30:47;;;;;;;15.88;7.75;;;;;;;-2.44;42.49;100231.69;4955113;28;20047;-73
2022/03/12 02:33:32;;;;;;;16.20;7.40;;;;;;;-2.69;42.38;100234.00;4955124;29;20047;-74
2022/03/12 02:36:26;;;;;;;15.60;6.68;;;;;;;-2.32;41.43;100227.50;4956609;29;20051;-73
2022/03/12 02:39:13;;;;;;;16.95;6.95;;;;;;;-2.04;40.09;100235.41;4956599;29;20055;-74
2022/03/12 02:42:02;;;;;;;14.05;6.43;;;;;;;-2.14;40.36;100235.31;4955916;29;20066;-74
2022/03/12 02:44:50;;;;;;;16.92;6.53;;;;;;;-2.19;40.59;100233.59;4955916;29;20052;-74
2022/03/12 02:47:40;;;;;;;12.90;6.68;;;;;;;-2.14;39.67;100232.75;4967052;28;20103;-73
2022/03/12 02:50:25;;;;;;;13.18;6.38;;;;;;;-2.15;39.48;100233.63;4960307;28;20035;-73
2022/03/12 02:53:12;;;;;;;9.52;5.60;;;;;;;-2.36;39.32;100230.03;4977410;28;20051;-73
2022/03/12 02:55:58;;;;;;;12.35;6.05;;;;;;;-2.13;38.80;100225.91;4960475;28;20058;-73
2022/03/12 02:58:43;;;;;;;14.65;6.95;;;;;;;-2.31;39.40;100231.78;4988047;28;20051;-73
2022/03/12 03:01:28;;;;;;;14.05;6.40;;;;;;;-2.21;38.43;100232.69;4975276;28;20058;-72
2022/03/12 03:04:13;;;;;;;10.65;5.05;;;;;;;-2.73;38.92;100232.28;4974592;28;20054;-73
2022/03/12 03:07:00;;;;;;;12.65;5.18;;;;;;;-2.50;38.14;100239.34;4975206;28;20439;-74
2022/03/12 03:09:49;;;;;;;10.82;4.93;;;;;;;-3.04;39.02;100234.53;4986984;28;20055;-73
2022/03/12 03:12:35;;;;;;;11.60;5.10;;;;;;;-2.69;39.03;100236.56;4975331;28;20046;-74
2022/03/12 03:15:20;;;;;;;11.35;4.93;;;;;;;-2.47;38.15;100236.78;4987381;28;20161;-74
2022/03/12 03:18:10;;;;;;;12.30;4.53;;;;;;;-2.37;37.91;100230.88;4974924;28;20047;-74
2022/03/12 03:20:56;;;;;;;10.00;4.55;;;;;;;-2.35;37.75;100242.00;4974917;28;20047;-74
2022/03/12 03:23:45;;;;;;;8.57;4.55;;;;;;;-2.68;37.97;100233.19;4960246;28;20043;-74
2022/03/12 03:26:33;;;;;;;10.20;4.43;;;;;;;-2.20;37.32;100234.44;4959977;28;20042;-73
2022/03/12 03:29:19;;;;;;;8.63;3.90;;;;;;;-2.51;36.77;100240.16;4974728;28;20042;-73
2022/03/12 03:32:05;;;;;;;9.98;3.55;;;;;;;-2.33;36.86;100238.63;4987155;28;20035;-73
2022/03/12 03:34:50;;;;;;;8.57;3.85;;;;;;;-2.32;36.40;100232.63;4987242;28;20463;-73
2022/03/12 03:37:37;;;;;;;6.07;3.40;;;;;;;-2.33;36.39;100238.63;4974168;28;20050;-75
2022/03/12 03:40:24;;;;;;;9.18;3.78;;;;;;;-2.10;35.90;100238.78;4987134;28;20043;-74
2022/03/12 03:43:15;;;;;;;8.90;3.33;;;;;;;-2.54;36.69;100230.75;4973713;28;20058;-73
2022/03/12 03:46:00;;;;;;;12.05;3.45;;;;;;;-2.20;35.92;100235.28;4974679;28;20038;-73
2022/03/12 03:48:51;;;;;;;8.77;3.50;;;;;;;-2.53;35.86;100237.56;4986777;28;20375;-74
2022/03/12 03:51:42;;;;;;;6.40;2.97;;;;;;;-2.40;36.03;100242.84;4974495;28;20046;-74
2022/03/12 03:54:29;;;;;;;7.53;4.05;;;;;;;-2.35;35.59;100248.88;4959739;28;20051;-73
2022/03/12 03:57:16;;;;;;;6.75;3.75;;;;;;;-2.58;36.14;100251.22;4974086;28;20043;-73
2022/03/12 04:00:03;;;;;;;10.55;3.30;;;;;;;-2.50;35.93;100236.75;4986887;28;20470;-74
2022/03/12 04:03:04;;;;;;;7.63;3.38;;;;;;;-2.68;36.59;100240.88;4973764;28;20041;-74
2022/03/12 04:05:50;;;;;;;7.95;3.03;;;;;;;-2.38;36.49;100248.81;4974180;28;20058;-73
2022/03/12 04:08:38;;;;;;;6.90;3.40;;;;;;;-2.23;36.01;100245.53;4989260;28;20055;-74
2022/03/12 04:11:25;;;;;;;9.05;2.95;;;;;;;-2.02;36.15;100238.81;4992972;28;20058;-73
2022/03/12 04:14:10;;;;;;;9.38;3.33;;;;;;;-1.94;36.44;100247.44;4975437;28;20063;-73
2022/03/12 04:16:58;;;;;;;9.75;4.28;;;;;;;-2.18;37.09;100256.72;4974725;28;20047;-74
2022/03/12 04:19:42;;;;;;;12.25;3.75;;;;;;;-2.39;37.51;100248.00;4973712;28;20054;-74
2022/03/12 04:22:29;;;;;;;8.07;4.55;;;;;;;-2.50;38.48;100245.31;4974048;28;20047;-73
2022/03/12 04:25:15;;;;;;;10.57;4.75;;;;;;;-2.60;38.59;100241.81;4974242;28;20038;-73
2022/03/12 04:28:00;;;;;;;10.10;4.95;;;;;;;-2.49;38.71;100254.75;4974267;28;20474;-74
2022/03/12 04:30:46;;;;;;;10.95;4.78;;;;;;;-2.68;39.10;100247.72;4973721;28;20051;-74
2022/03/12 04:33:34;;;;;;;12.82;5.93;;;;;;;-3.31;40.12;100246.19;4973474;28;20055;-73
2022/03/12 04:36:19;;;;;;;11.50;5.10;;;;;;;-3.22;40.20;100256.56;4973645;28;20058;-72
2022/03/12 04:39:05;;;;;;;11.50;6.20;;;;;;;-3.09;39.98;100252.44;4986342;28;20467;-73
2022/03/12 04:41:50;;;;;;;12.63;5.40;;;;;;;-3.25;40.12;100234.28;4973067;28;20491;-74
2022/03/12 04:44:35;;;;;;;10.85;5.20;;;;;;;-3.26;40.34;100250.53;4973604;28;20051;-74
2022/03/12 04:47:21;;;;;;;14.20;5.60;;;;;;;-3.24;40.16;100248.84;4986135;28;20047;-72
2022/03/12 04:50:06;;;;;;;11.35;5.80;;;;;;;-3.14;39.62;100244.69;4985799;28;20043;-72
2022/03/12 04:52:53;;;;;;;9.43;4.78;;;;;;;-3.52;40.45;100237.38;4986709;28;20047;-72
2022/03/12 04:55:39;;;;;;;10.95;5.63;;;;;;;-3.44;40.53;100240.91;4973062;28;20050;-74
2022/03/12 04:58:25;;;;;;;12.80;5.88;;;;;;;-3.42;40.53;100239.22;4972070;28;20051;-73
2022/03/12 05:01:10;;;;;;;11.65;5.20;;;;;;;-3.64;40.92;100232.97;4973819;28;20058;-73
2022/03/12 05:03:56;;;;;;;11.68;5.60;;;;;;;-3.29;40.20;100229.09;4973772;28;20046;-73
2022/03/12 05:06:42;;;;;;;11.85;5.38;;;;;;;-3.62;40.70;100227.00;4973348;28;20406;-74
2022/03/12 05:09:26;;;;;;;11.63;5.03;;;;;;;-3.40;40.29;100231.53;4985552;28;20051;-73
2022/03/12 05:12:12;;;;;;;11.82;5.35;;;;;;;-3.37;40.05;100229.03;4986296;28;20051;-74
2022/03/12 05:14:58;;;;;;;10.27;4.85;;;;;;;-3.41;39.98;100220.44;4971993;28;20051;-74
2022/03/12 05:17:49;;;;;;;10.45;4.90;;;;;;;-3.54;40.92;100224.53;4973342;28;20042;-74
2022/03/12 05:20:36;;;;;;;11.30;4.72;;;;;;;-3.25;40.23;100224.03;4985662;28;20047;-74
2022/03/12 05:23:22;;;;;;;12.90;5.45;;;;;;;-3.32;39.82;100223.94;4973298;28;20464;-73
2022/03/12 05:26:09;;;;;;;10.80;4.68;;;;;;;-3.34;40.18;100224.78;4972547;28;20051;-74
2022/03/12 05:28:54;;;;;;;8.73;4.40;;;;;;;-3.18;40.16;100232.66;4968228;28;20042;-73
2022/03/12 05:31:40;;;;;;;12.07;5.32;;;;;;;-3.25;39.77;100223.19;4952913;28;20055;-73
2022/03/12 05:34:25;;;;;;;12.23;5.00;;;;;;;-3.12;39.89;100225.03;4964964;28;20564;-73
2022/03/12 05:37:10;;;;;;;12.02;5.43;;;;;;;-3.19;40.02;100222.38;4952790;28;20048;-73
2022/03/12 05:39:55;;;;;;;12.57;4.38;;;;;;;-2.87;39.29;100214.16;4951870;28;20414;-72
2022/03/12 05:42:45;;;;;;;11.93;5.07;;;;;;;-3.09;39.78;100219.09;4956497;28;20062;-73
2022/03/12 05:45:30;;;;;;;15.25;5.13;;;;;;;-3.03;39.91;100228.53;4952234;28;20043;-71
2022/03/12 05:48:16;;;;;;;9.40;4.65;;;;;;;-2.77;39.57;100223.69;4965180;28;20047;-71
2022/03/12 05:51:02;;;;;;;12.30;5.50;;;;;;;-2.95;39.69;100239.75;4951877;28;20040;-73
2022/03/12 05:53:48;;;;;;;12.23;5.40;;;;;;;-2.70;39.49;100234.00;4965058;28;20043;-73
2022/03/12 05:56:33;;;;;;;11.02;5.47;;;;;;;-3.06;39.83;100231.06;4970197;28;20059;-73
2022/03/12 05:59:18;;;;;;;12.77;4.75;;;;;;;-2.86;39.56;100234.69;4977602;28;20048;-74
2022/03/12 06:02:04;;;;;;;12.18;5.28;;;;;;;-2.79;39.46;100237.34;4969053;28;20418;-73
2022/03/12 06:04:49;;;;;;;10.55;5.25;;;;;;;-2.52;39.05;100231.63;4958725;28;20475;-73
2022/03/12 06:07:35;;;;;;;11.50;5.15;;;;;;;-2.53;38.64;100232.44;4954939;28;20047;-72
2022/03/12 06:10:23;;;;;;;9.63;4.53;;;;;;;-2.39;38.44;100229.16;4958309;28;20043;-73
2022/03/12 06:13:11;;;;;;;13.30;6.07;;;;;;;-2.43;38.43;100242.81;4959145;28;20044;-74
2022/03/12 06:16:02;;;;;;;12.80;5.20;;;;;;;-2.33;38.33;100239.47;4954885;28;20055;-72
2022/03/12 06:18:47;;;;;;;12.02;5.05;;;;;;;-1.90;37.37;100238.94;4961126;28;20039;-73
2022/03/12 06:21:33;;;;;;;9.60;5.22;;;;;;;-1.77;37.60;100237.28;4968137;28;20047;-73
2022/03/12 06:24:17;;;;;;;13.75;5.40;;;;;;;-1.89;37.37;100244.91;4958512;28;20039;-73
2022/03/12 06:27:03;;;;;;;9.93;4.85;;;;;;;-1.60;36.64;100249.38;4955058;29;20051;-73
2022/03/12 06:29:48;;;;;;;11.30;4.78;;;;;;;-1.54;36.48;100251.13;4968880;28;20040;-73
2022/03/12 06:32:34;;;;;;;8.75;4.75;;;;;;;-0.69;35.68;100247.09;4955826;28;20043;-74
2022/03/12 06:35:19;;;;;;;11.45;4.78;;;;;;;-0.27;34.47;100242.84;4968788;28;20055;-76
2022/03/12 06:38:04;;;;;;;8.65;4.78;;;;;;;-0.16;33.81;100248.00;4955091;29;20047;-61
2022/03/12 06:40:49;;;;;;;9.65;4.72;;;;;;;0.09;39.95;100247.97;4958600;28;20051;-73
2022/03/12 06:43:37;;;;;;;12.70;5.22;;;;;;;-0.57;35.46;100251.44;4968249;28;20051;-75
2022/03/12 06:46:22;;;;;;;12.48;4.85;;;;;;;-0.32;36.01;100260.03;4970078;28;20043;-74
2022/03/12 06:49:08;;;;;;;8.93;4.25;;;;;;;0.32;35.04;100261.66;4974169;28;20047;-76
2022/03/12 06:51:53;;;;;;;9.75;4.75;;;;;;;0.51;34.69;100266.81;4976639;28;20047;-75
2022/03/12 06:54:39;;;;;;;8.18;4.32;;;;;;;0.74;34.05;100258.97;4977508;28;20046;-73
2022/03/12 06:57:24;;;;;;;9.93;4.55;;;;;;;0.57;42.97;100272.78;4990250;28;20054;-74
2022/03/12 07:00:15;;;;;;;10.95;5.32;;;;;;;1.58;47.09;100273.13;4993005;28;20050;-70
2022/03/12 07:02:59;;;;;;;10.77;5.15;;;;;;;1.62;37.91;100271.41;4970423;28;20035;-72
2022/03/12 07:05:45;;;;;;;114.60;52.45;;;;;;;1.21;41.36;100269.91;4975656;28;20039;-74
2022/03/12 07:08:30;;;;;;;51.33;23.38;;;;;;;1.72;38.37;100266.13;4964918;28;20051;-71
2022/03/12 07:11:20;;;;;;;15.10;7.35;;;;;;;1.55;34.47;100265.41;4974304;28;20047;-73
2022/03/12 07:14:05;;;;;;;27.75;14.18;;;;;;;1.92;34.31;100265.13;4973367;28;20047;-72
2022/03/12 07:16:51;;;;;;;45.97;21.65;;;;;;;2.71;38.76;100265.16;4973789;28;20043;-74
2022/03/12 07:19:37;;;;;;;33.45;14.30;;;;;;;2.50;33.32;100268.88;4954524;29;20055;-71
2022/03/12 07:22:22;;;;;;;47.80;22.02;;;;;;;2.74;37.24;100252.22;4955169;29;20047;-71
2022/03/12 07:25:09;;;;;;;26.77;12.93;;;;;;;2.61;33.74;100261.84;4955497;28;20395;-70
2022/03/12 07:27:55;;;;;;;24.50;11.68;;;;;;;2.96;33.89;100254.50;4954250;29;20039;-71
2022/03/12 07:30:40;;;;;;;16.38;8.55;;;;;;;3.52;31.91;100255.44;4972465;28;20055;-71
2022/03/12 07:33:25;;;;;;;18.15;9.02;;;;;;;2.31;34.59;100261.28;4967388;28;20055;-68
2022/03/12 07:36:11;;;;;;;24.00;9.85;;;;;;;3.12;33.08;100262.91;4967718;28;20051;-70
2022/03/12 07:38:58;;;;;;;21.77;7.93;;;;;;;3.94;31.93;100260.81;4967696;28;20051;-72
2022/03/12 07:41:45;;;;;;;18.40;7.28;;;;;;;5.04;30.53;100269.97;4954823;29;20055;-70
2022/03/12 07:44:31;;;;;;;15.05;7.68;;;;;;;5.12;29.12;100262.03;4955071;29;20487;-69
2022/03/12 07:47:16;;;;;;;11.32;6.38;;;;;;;4.74;29.86;100259.34;4967846;28;20051;-68
2022/03/12 07:50:03;;;;;;;14.15;6.60;;;;;;;4.58;29.42;100273.50;4967190;28;20051;-70
2022/03/12 07:52:49;;;;;;;13.95;6.32;;;;;;;6.50;30.64;100264.75;4967317;28;20471;-58
2022/03/12 07:55:34;;;;;;;8.68;4.30;;;;;;;4.71;28.25;100259.41;4977153;28;20046;-58
2022/03/12 07:58:20;;;;;;;9.27;4.43;;;;;;;4.36;28.67;100264.38;4974072;28;20721;-55
2022/03/12 08:01:08;;;;;;;7.63;4.00;;;;;;;5.11;28.31;100264.66;4973826;28;20043;-56
2022/03/12 08:03:53;;;;;;;8.40;4.57;;;;;;;4.46;29.00;100277.19;4972640;28;20042;-57
2022/03/12 08:06:38;;;;;;;8.02;3.90;;;;;;;5.16;28.19;100262.78;4971439;28;20043;-58
2022/03/12 08:09:23;;;;;;;10.57;4.85;;;;;;;5.75;27.71;100261.44;4959303;28;20042;-58
2022/03/12 08:12:08;;;;;;;13.10;4.10;;;;;;;5.40;27.97;100263.97;4952774;28;20035;-58
2022/03/12 08:14:54;;;;;;;9.55;4.10;;;;;;;5.03;28.30;100263.06;4965855;28;20051;-57
2022/03/12 08:17:40;;;;;;;6.32;3.67;;;;;;;5.84;26.73;100290.72;4955083;28;20039;-59
2022/03/12 08:20:25;;;;;;;4.72;2.30;;;;;;;5.79;25.53;100267.44;4953686;29;20051;-59
2022/03/12 08:23:10;;;;;;;5.35;3.33;;;;;;;5.88;25.90;100269.78;4953943;29;20047;-56
2022/03/12 08:25:59;;;;;;;5.15;2.70;;;;;;;5.18;25.66;100261.88;4953887;29;20043;-56
2022/03/12 08:28:45;;;;;;;6.63;2.83;;;;;;;5.25;25.68;100272.13;4952618;28;20051;-55
2022/03/12 08:31:31;;;;;;;6.13;3.20;;;;;;;5.56;25.69;100255.84;4953673;29;20047;-56
2022/03/12 08:34:16;;;;;;;6.85;3.33;;;;;;;5.53;25.78;100256.75;4954038;29;20043;-58
2022/03/12 08:37:05;;;;;;;4.75;2.80;;;;;;;5.80;23.85;100243.13;4966569;28;20051;-56
2022/03/12 08:39:50;;;;;;;6.10;2.85;;;;;;;5.79;24.03;100263.06;4953055;29;20051;-57
2022/03/12 08:42:35;;;;;;;7.00;3.08;;;;;;;5.05;24.47;100250.03;4953897;29;20475;-58
2022/03/12 08:45:20;;;;;;;7.32;3.28;;;;;;;5.36;23.92;100267.56;4965268;28;20043;-57
2022/03/12 08:48:05;;;;;;;6.13;2.58;;;;;;;5.05;24.35;100252.63;4953698;29;20035;-54
2022/03/12 08:50:50;;;;;;;5.35;3.00;;;;;;;4.72;25.10;100262.88;4939646;29;20039;-53
2022/03/12 08:53:36;;;;;;;8.65;3.00;;;;;;;4.92;24.74;100246.84;4953801;29;20047;-58
2022/03/12 08:56:21;;;;;;;6.63;2.78;;;;;;;5.95;23.79;100249.69;4982402;28;20479;-57
2022/03/12 08:59:07;;;;;;;7.53;3.08;;;;;;;6.26;23.29;100255.84;4973281;28;20043;-58
2022/03/12 09:01:54;;;;;;;7.68;2.92;;;;;;;7.03;22.93;100241.56;4963920;28;20039;-57
2022/03/12 09:04:39;;;;;;;5.47;2.80;;;;;;;6.82;23.18;100254.28;4967203;28;20039;-58
2022/03/12 09:07:24;;;;;;;6.72;3.20;;;;;;;5.92;23.40;100261.00;4952778;28;20036;-57
2022/03/12 09:10:13;;;;;;;8.02;3.92;;;;;;;5.60;23.68;100236.66;4952518;28;20459;-58
2022/03/12 09:12:58;;;;;;;7.03;3.17;;;;;;;6.13;23.40;100244.91;4952285;28;20043;-56
2022/03/12 09:15:44;;;;;;;7.03;3.13;;;;;;;5.27;23.81;100242.63;4962519;28;20051;-56
2022/03/12 09:18:30;;;;;;;6.25;2.75;;;;;;;6.37;23.08;100247.75;4954210;28;20115;-56
2022/03/12 09:21:15;;;;;;;6.97;3.10;;;;;;;6.62;22.16;100255.75;4954516;28;20043;-58
2022/03/12 09:24:03;;;;;;;7.10;3.13;;;;;;;5.83;23.51;100252.56;4964901;28;20482;-56
2022/03/12 09:26:48;;;;;;;4.80;2.80;;;;;;;6.85;22.38;100236.00;4953271;28;20043;-58
2022/03/12 09:29:35;;;;;;;6.20;2.97;;;;;;;6.61;22.26;100246.22;4952478;28;20039;-57
2022/03/12 09:32:20;;;;;;;6.15;2.80;;;;;;;7.59;21.97;100236.34;4952540;28;20035;-56
2022/03/12 09:35:06;;;;;;;6.15;2.90;;;;;;;7.41;21.56;100238.63;4954092;29;20043;-57
2022/03/12 09:37:54;;;;;;;7.50;3.78;;;;;;;8.32;21.11;100225.19;4953420;29;20047;-58
2022/03/12 09:40:39;;;;;;;7.50;3.50;;;;;;;9.16;36.98;100216.00;4952741;28;20063;-62
2022/03/12 09:43:24;;;;;;;10.85;3.47;;;;;;;14.74;36.02;100219.56;4956656;29;20048;-56
2022/03/12 09:46:09;;;;;;;6.72;3.03;;;;;;;10.23;19.43;100243.03;4966266;28;20359;-59
2022/03/12 09:48:54;;;;;;;6.90;2.88;;;;;;;10.03;19.56;100233.44;4968016;29;20047;-59
2022/03/12 09:51:41;;;;;;;4.63;2.90;;;;;;;8.21;20.73;100223.81;4960710;29;20039;-59
2022/03/12 09:54:29;;;;;;;8.40;3.13;;;;;;;8.38;20.57;100220.63;4958305;28;20047;-59
2022/03/12 09:57:15;;;;;;;5.50;2.80;;;;;;;8.72;20.32;100205.47;4963947;28;20407;-59
2022/03/12 10:00:04;;;;;;;5.72;2.53;;;;;;;9.72;19.59;100203.31;4957186;29;20043;-57
2022/03/12 10:02:58;;;;;;;4.70;2.88;;;;;;;7.86;20.53;100218.06;4957134;29;20054;-60
2022/03/12 10:05:43;;;;;;;7.10;3.10;;;;;;;9.60;19.33;100210.75;4969105;28;20051;-61
2022/03/12 10:08:28;;;;;;;5.07;2.53;;;;;;;8.70;19.39;100209.91;4956374;29;20384;-60
2022/03/12 10:11:13;;;;;;;6.68;3.03;;;;;;;9.54;19.30;100207.53;4956386;28;20035;-59
2022/03/12 10:13:58;;;;;;;6.22;2.53;;;;;;;8.99;19.44;100201.88;4957179;28;20039;-58
2022/03/12 10:16:43;;;;;;;5.10;2.97;;;;;;;8.84;19.52;100203.31;4961579;28;20047;-60
2022/03/12 10:19:30;;;;;;;7.60;3.10;;;;;;;8.38;20.36;100196.25;4956526;29;20058;-59
2022/03/12 10:22:16;;;;;;;7.65;3.28;;;;;;;8.24;20.28;100202.81;4956604;29;20039;-59
2022/03/12 10:25:02;;;;;;;6.07;3.10;;;;;;;8.19;20.36;100196.94;4955753;29;20047;-60
2022/03/12 10:27:49;;;;;;;6.05;2.92;;;;;;;8.26;20.25;100210.59;4958320;28;20394;-58
2022/03/12 10:30:34;;;;;;;6.10;2.88;;;;;;;8.55;20.27;100177.34;4970470;28;20043;-60
2022/03/12 10:33:25;;;;;;;5.10;2.30;;;;;;;9.70;19.18;100208.63;4978588;28;20047;-60
2022/03/12 10:36:15;;;;;;;7.15;2.90;;;;;;;10.21;18.98;100174.16;4963671;28;20047;-59
2022/03/12 10:39:00;;;;;;;4.95;2.53;;;;;;;10.15;19.19;100170.97;4976351;28;20038;-59
2022/03/12 10:41:45;;;;;;;5.75;2.60;;;;;;;9.38;19.45;100187.25;4974103;28;20050;-59
2022/03/12 10:44:39;;;;;;;5.47;2.70;;;;;;;9.20;19.48;100181.88;5007714;28;20382;-59
2022/03/12 10:47:24;;;;;;;5.43;2.80;;;;;;;9.72;19.23;100166.69;5007396;28;20474;-59
2022/03/12 10:50:15;;;;;;;5.45;3.00;;;;;;;10.67;18.93;100149.44;4972302;28;20031;-62
2022/03/12 10:53:05;;;;;;;10.05;3.40;;;;;;;11.01;18.39;100148.72;4966638;28;20039;-61
2022/03/12 10:55:51;;;;;;;5.25;2.80;;;;;;;10.72;25.68;100162.31;4967191;28;20043;-58
2022/03/12 10:58:37;;;;;;;6.78;2.97;;;;;;;12.13;26.16;100151.03;4975990;28;20034;-58
2022/03/12 11:01:26;;;;;;;5.28;2.20;;;;;;;11.64;21.39;100165.75;4956799;28;20051;-57
2022/03/12 11:04:19;;;;;;;6.35;3.22;;;;;;;12.13;25.53;100145.78;4955900;29;20048;-57
2022/03/12 11:07:26;;;;;;;9.30;4.80;;;;;;;11.79;24.32;100148.38;4978254;28;20038;-57
2022/03/12 11:10:23;;;;;;;10.75;4.60;;;;;;;13.72;23.18;100137.88;4994242;28;20058;-57
2022/03/12 11:13:08;;;;;;;7.78;3.72;;;;;;;11.83;24.34;100146.44;4994511;28;20042;-56
2022/03/12 11:16:21;;;;;;;6.45;3.08;;;;;;;12.24;22.94;100132.06;4977134;28;20043;-56
2022/03/12 11:19:11;;;;;;;6.40;3.20;;;;;;;13.33;27.51;100137.50;4956808;28;20043;-57
2022/03/12 11:21:56;;;;;;;7.82;3.15;;;;;;;13.72;25.75;100135.25;4983352;28;20042;-58
2022/03/12 11:24:50;;;;;;;6.20;3.00;;;;;;;12.90;24.18;100124.09;4952009;28;20051;-53
2022/03/12 11:27:36;;;;;;;5.85;2.55;;;;;;;15.44;26.69;100116.63;4967783;28;20035;-54
2022/03/12 11:30:22;;;;;;;4.53;2.80;;;;;;;12.47;19.86;100103.69;4955094;29;20039;-55
2022/03/12 11:33:08;;;;;;;6.05;3.15;;;;;;;11.87;20.69;100108.56;4974173;28;20042;-56
2022/03/12 11:36:01;;;;;;;4.50;2.83;;;;;;;11.56;21.55;100118.03;4986918;28;20091;-55
2022/03/12 11:38:50;;;;;;;5.65;3.05;;;;;;;14.06;29.53;100100.72;4972980;28;20398;-55
2022/03/12 11:41:37;;;;;;;4.68;2.40;;;;;;;13.22;26.64;100093.41;4987779;28;20398;-57
2022/03/12 11:44:25;;;;;;;5.15;2.42;;;;;;;14.66;22.98;100098.72;4993562;28;20370;-55
2022/03/12 11:47:12;;;;;;;5.55;2.40;;;;;;;15.31;23.23;100085.75;4971301;28;20063;-54
2022/03/12 11:50:01;;;;;;;6.93;2.35;;;;;;;13.87;21.21;100105.34;4967454;28;20043;-56
2022/03/12 11:52:47;;;;;;;4.82;2.75;;;;;;;13.18;20.05;100096.22;4967383;28;20066;-56
2022/03/12 11:55:32;;;;;;;5.10;2.53;;;;;;;13.89;25.28;100092.06;4964292;28;20042;-56
2022/03/12 11:58:18;;;;;;;5.10;2.03;;;;;;;14.70;25.81;100075.66;4974481;28;20039;-55
2022/03/12 12:01:05;;;;;;;6.22;2.95;;;;;;;12.54;21.71;100080.53;4978091;28;20054;-55
2022/03/12 12:03:53;;;;;;;9.55;3.20;;;;;;;14.61;26.31;100079.72;4992578;28;20046;-55
2022/03/12 12:06:38;;;;;;;4.20;2.17;;;;;;;15.95;24.04;100062.91;4969492;28;20039;-56
2022/03/12 12:09:24;;;;;;;3.63;1.88;;;;;;;14.78;18.86;100061.03;4973814;28;20055;-55
2022/03/12 12:12:12;;;;;;;3.95;2.10;;;;;;;14.28;22.12;100072.09;4973623;28;20047;-57
2022/03/12 12:14:58;;;;;;;3.42;2.05;;;;;;;14.39;18.16;100068.75;4974262;28;20043;-56
2022/03/12 12:17:43;;;;;;;5.50;2.50;;;;;;;15.38;21.68;100068.53;4973520;28;20042;-56
2022/03/12 12:20:30;;;;;;;4.70;2.45;;;;;;;13.57;18.46;100074.69;4973619;28;20050;-57
2022/03/12 12:23:21;;;;;;;6.20;2.40;;;;;;;13.97;21.65;100060.00;4972517;28;20046;-51
2022/03/12 12:26:09;;;;;;;4.18;2.00;;;;;;;15.15;20.59;100048.97;4972400;28;20043;-56
2022/03/12 12:28:56;;;;;;;5.20;2.45;;;;;;;14.31;17.27;100055.25;4976099;28;20467;-57
2022/03/12 12:31:45;;;;;;;4.72;2.10;;;;;;;14.24;19.95;100049.53;4993014;28;20053;-56
2022/03/12 12:34:30;;;;;;;5.15;2.75;;;;;;;14.24;21.50;100038.13;4979540;28;20035;-56
2022/03/12 12:37:17;;;;;;;4.63;2.38;;;;;;;15.36;18.15;100040.53;4977619;28;20042;-55
2022/03/12 12:40:22;;;;;;;4.13;2.25;;;;;;;15.08;20.19;100031.88;4989652;28;20054;-55
2022/03/12 12:43:12;;;;;;;4.50;2.30;;;;;;;13.86;20.28;100045.72;4977770;28;20768;-55
2022/03/12 12:45:57;;;;;;;5.00;2.20;;;;;;;14.94;16.98;100030.16;4966306;28;20030;-56
2022/03/12 12:49:01;;;;;;;4.65;2.50;;;;;;;14.27;25.04;100028.25;4992925;28;20038;-54
2022/03/12 12:51:51;;;;;;;5.75;2.28;;;;;;;15.46;19.16;100019.63;4991273;28;20343;-57
2022/03/12 12:54:56;;;;;;;4.35;2.67;;;;;;;14.34;17.18;100019.94;4961819;28;20479;-55